Arcadia, Oklahoma
Current Conditions -  °F | °C
As of 2:53 PM on Friday 31 Oct 2014 (Local Time) from KGOK Reporting Station
Clear Clear  
Wind Chill: 56°   Ceiling: Unl
Heat Index: 56°   Visibility: 10mi
Dew Point: 28°   Wind: 10mph
Humidity: 34%   Direction: 360°N
Pressure: 30.4"   Gusts: 20mph
Location:  35.67°N, 97.33°W
Report Text: KGOK 311953Z AUTO 36009G17KT 300V020 10SM CLR 13/M02 A3040 RMK AO2 SLP297 T01331022
Loading
Personal Weather Stations






























Interactive Weather Map
Tropical Storm Tracking
New forecast layout! Learn more

10-Day Weather Forecast

Advertisements
Track Severe Weather on mobile